Time;durP1;ratioP1;P1;durP2;ratioP2;P2;SDS_P1;SDS_P2;PMS_P1;PMS_P2;Temp;Humidity;BMP_temperature;BMP_pressure;BME280_temperature;BME280_humidity;BME280_pressure;Samples;Min_cycle;Max_cycle;Signal;HPM_P1;HPM_P2
2021/03/12 00:01:51;;;;;;;1.35;0.50;;;;;;;;;;5111383;28;20032;-52
2021/03/12 00:04:17;;;;;;;3.50;0.55;;;;;;;;;;5099327;28;20395;-52
2021/03/12 00:06:43;;;;;;;0.38;0.38;;;;;;;;;;5104721;28;20024;-52
2021/03/12 00:09:09;;;;;;;0.32;0.32;;;;;;;;;;5106013;28;20034;-52
2021/03/12 00:11:35;;;;;;;0.32;0.32;;;;;;;;;;5111884;28;20031;-52
2021/03/12 00:14:01;;;;;;;3.42;0.52;;;;;;;;;;5097517;28;20110;-52
2021/03/12 00:16:27;;;;;;;1.80;0.60;;;;;;;;;;5100557;28;20134;-52
2021/03/12 00:18:53;;;;;;;3.38;0.55;;;;;;;;;;5110289;28;20023;-52
2021/03/12 00:21:19;;;;;;;1.38;0.50;;;;;;;;;;5106238;28;20023;-52
2021/03/12 00:23:45;;;;;;;0.40;0.40;;;;;;;;;;5097464;28;20048;-52
2021/03/12 00:26:11;;;;;;;1.20;0.65;;;;;;;;;;5109436;28;20020;-52
2021/03/12 00:28:38;;;;;;;1.92;0.40;;;;;;;;;;5101666;28;20032;-52
2021/03/12 00:31:05;;;;;;;2.95;0.40;;;;;;;;;;5105500;28;20023;-52
2021/03/12 00:33:31;;;;;;;0.30;0.30;;;;;;;;;;5110610;28;20028;-52
2021/03/12 00:35:57;;;;;;;0.45;0.45;;;;;;;;;;5106574;28;20031;-52
2021/03/12 00:38:23;;;;;;;0.20;0.20;;;;;;;;;;5098026;28;20055;-51
2021/03/12 00:40:53;;;;;;;0.40;0.40;;;;;;;;;;5104966;28;20020;-52
2021/03/12 00:43:20;;;;;;;0.40;0.40;;;;;;;;;;5095485;28;20093;-52
2021/03/12 00:45:48;;;;;;;1.10;0.40;;;;;;;;;;5110272;28;20411;-52
2021/03/12 00:48:14;;;;;;;1.40;0.30;;;;;;;;;;5097817;28;20027;-52
2021/03/12 00:50:40;;;;;;;1.20;0.60;;;;;;;;;;5104416;28;20096;-52
2021/03/12 00:53:07;;;;;;;1.00;0.63;;;;;;;;;;5105608;28;20035;-52
2021/03/12 00:55:33;;;;;;;0.40;0.40;;;;;;;;;;5098227;27;20042;-51
2021/03/12 00:57:59;;;;;;;0.32;0.32;;;;;;;;;;5100829;28;20027;-52
2021/03/12 01:00:29;;;;;;;0.57;0.57;;;;;;;;;;5110101;27;20035;-52
2021/03/12 01:02:55;;;;;;;0.90;0.52;;;;;;;;;;5102624;28;20404;-52
2021/03/12 01:05:22;;;;;;;0.50;0.50;;;;;;;;;;5102383;28;20031;-52
2021/03/12 01:07:48;;;;;;;0.65;0.43;;;;;;;;;;5109783;28;20020;-52
2021/03/12 01:10:15;;;;;;;0.88;0.40;;;;;;;;;;5095268;28;20334;-52
2021/03/12 01:12:41;;;;;;;0.30;0.30;;;;;;;;;;5094840;28;20020;-52
2021/03/12 01:15:09;;;;;;;0.50;0.50;;;;;;;;;;5095822;28;20050;-52
2021/03/12 01:17:35;;;;;;;0.40;0.40;;;;;;;;;;5105431;28;20074;-52
2021/03/12 01:20:02;;;;;;;0.32;0.30;;;;;;;;;;5096398;28;20016;-52
2021/03/12 01:22:28;;;;;;;4.60;0.30;;;;;;;;;;5107065;28;20031;-52
2021/03/12 01:24:54;;;;;;;0.32;0.30;;;;;;;;;;5101820;28;20020;-52
2021/03/12 01:27:20;;;;;;;1.88;0.30;;;;;;;;;;5105708;28;20485;-52
2021/03/12 01:29:46;;;;;;;1.08;0.75;;;;;;;;;;5097161;28;20027;-52
2021/03/12 01:32:12;;;;;;;0.75;0.52;;;;;;;;;;5097364;28;20026;-52
2021/03/12 01:34:38;;;;;;;0.40;0.40;;;;;;;;;;5106301;28;20062;-51
2021/03/12 01:37:04;;;;;;;0.30;0.30;;;;;;;;;;5113081;28;20038;-52
2021/03/12 01:39:30;;;;;;;0.30;0.30;;;;;;;;;;5111283;28;20416;-52
2021/03/12 01:41:56;;;;;;;0.30;0.30;;;;;;;;;;5112180;28;20074;-52
2021/03/12 01:44:22;;;;;;;0.30;0.30;;;;;;;;;;5114125;28;20051;-52
2021/03/12 01:46:48;;;;;;;1.85;0.40;;;;;;;;;;5115639;28;20122;-52
2021/03/12 01:49:14;;;;;;;0.68;0.55;;;;;;;;;;5113910;27;20464;-52
2021/03/12 01:51:40;;;;;;;1.85;0.35;;;;;;;;;;5097178;28;20024;-52
2021/03/12 01:54:06;;;;;;;0.82;0.40;;;;;;;;;;5096854;28;20143;-51
2021/03/12 01:56:32;;;;;;;1.33;0.52;;;;;;;;;;5103190;28;20476;-52
2021/03/12 01:58:58;;;;;;;0.90;0.32;;;;;;;;;;5117091;28;20516;-52
2021/03/12 02:01:24;;;;;;;0.90;0.47;;;;;;;;;;5115565;28;20106;-53
2021/03/12 02:03:50;;;;;;;0.28;0.28;;;;;;;;;;5117009;28;20028;-52
2021/03/12 02:06:16;;;;;;;0.30;0.30;;;;;;;;;;5116864;28;20024;-52
2021/03/12 02:08:42;;;;;;;0.20;0.20;;;;;;;;;;5097503;28;20023;-52
2021/03/12 02:11:08;;;;;;;0.40;0.40;;;;;;;;;;5097743;28;20028;-51
2021/03/12 02:13:49;;;;;;;2.00;0.60;;;;;;;;;;5096825;28;20059;-52
2021/03/12 02:16:33;;;;;;;0.45;0.45;;;;;;;;;;5096680;28;20081;-52
2021/03/12 02:19:02;;;;;;;0.40;0.40;;;;;;;;;;5096524;28;20036;-52
2021/03/12 02:21:43;;;;;;;0.30;0.30;;;;;;;;;;5097866;28;20629;-52
2021/03/12 02:24:24;;;;;;;1.35;0.40;;;;;;;;;;5096520;28;20024;-52
2021/03/12 02:26:58;;;;;;;0.80;0.50;;;;;;;;;;5110755;28;20067;-51
2021/03/12 02:29:25;;;;;;;1.20;0.45;;;;;;;;;;5102486;28;20034;-51
2021/03/12 02:31:52;;;;;;;1.80;0.77;;;;;;;;;;5097232;28;20528;-51
2021/03/12 02:34:20;;;;;;;0.30;0.30;;;;;;;;;;5096595;28;20020;-51
2021/03/12 02:36:47;;;;;;;0.98;0.68;;;;;;;;;;5105897;28;20032;-51
2021/03/12 02:39:16;;;;;;;0.75;0.50;;;;;;;;;;5096031;28;20016;-51
2021/03/12 02:41:43;;;;;;;2.65;0.43;;;;;;;;;;5095985;28;20092;-52
2021/03/12 02:44:09;;;;;;;0.85;0.50;;;;;;;;;;5097013;28;20111;-52
2021/03/12 02:46:35;;;;;;;1.75;0.40;;;;;;;;;;5097815;28;20050;-52
2021/03/12 02:49:02;;;;;;;0.40;0.40;;;;;;;;;;5096015;28;20020;-52
2021/03/12 02:51:28;;;;;;;1.17;0.63;;;;;;;;;;5103198;28;20027;-52
2021/03/12 02:53:54;;;;;;;3.40;0.50;;;;;;;;;;5110260;28;20342;-52
2021/03/12 02:56:21;;;;;;;0.70;0.40;;;;;;;;;;5115988;28;20118;-52
2021/03/12 02:58:47;;;;;;;4.35;1.00;;;;;;;;;;5115354;28;20023;-52
2021/03/12 03:01:14;;;;;;;4.65;0.68;;;;;;;;;;5107097;28;20039;-52
2021/03/12 03:03:40;;;;;;;4.38;0.50;;;;;;;;;;5106572;28;20458;-52
2021/03/12 03:06:07;;;;;;;0.38;0.38;;;;;;;;;;5098448;28;20070;-52
2021/03/12 03:08:36;;;;;;;0.40;0.40;;;;;;;;;;5106977;28;20026;-51
2021/03/12 03:11:03;;;;;;;0.60;0.60;;;;;;;;;;5100247;28;20111;-52
2021/03/12 03:13:33;;;;;;;4.53;0.70;;;;;;;;;;5096514;28;20028;-52
2021/03/12 03:16:00;;;;;;;0.77;0.55;;;;;;;;;;5104468;28;20028;-52
2021/03/12 03:18:27;;;;;;;1.20;0.50;;;;;;;;;;5095654;28;20057;-52
2021/03/12 03:20:54;;;;;;;3.75;0.77;;;;;;;;;;5107963;28;20027;-52
2021/03/12 03:23:20;;;;;;;0.43;0.43;;;;;;;;;;5107960;28;20020;-52
2021/03/12 03:25:46;;;;;;;3.22;0.50;;;;;;;;;;5098387;28;20024;-52
2021/03/12 03:28:13;;;;;;;1.42;0.50;;;;;;;;;;5115481;28;20028;-52
2021/03/12 03:30:39;;;;;;;0.85;0.63;;;;;;;;;;5115898;28;20024;-53
2021/03/12 03:33:05;;;;;;;0.25;0.25;;;;;;;;;;5113734;28;20028;-52
2021/03/12 03:35:31;;;;;;;4.28;0.63;;;;;;;;;;5100621;28;20536;-52
2021/03/12 03:37:57;;;;;;;1.75;0.38;;;;;;;;;;5095352;28;20028;-52
2021/03/12 03:40:23;;;;;;;2.25;0.35;;;;;;;;;;5100606;28;20098;-52
2021/03/12 03:42:50;;;;;;;4.22;0.80;;;;;;;;;;5096675;28;20131;-52
2021/03/12 03:45:16;;;;;;;1.40;0.70;;;;;;;;;;5106729;28;20088;-53
2021/03/12 03:47:43;;;;;;;0.68;0.43;;;;;;;;;;5112448;28;20030;-52
2021/03/12 03:50:10;;;;;;;1.15;0.50;;;;;;;;;;5115267;28;20034;-52
2021/03/12 03:52:36;;;;;;;1.40;0.50;;;;;;;;;;5114982;27;20024;-52
2021/03/12 03:55:03;;;;;;;0.40;0.40;;;;;;;;;;5100396;28;20055;-52
2021/03/12 03:57:29;;;;;;;3.35;0.50;;;;;;;;;;5112682;28;20028;-52
2021/03/12 03:59:56;;;;;;;5.22;0.60;;;;;;;;;;5114684;27;20027;-52
2021/03/12 04:02:22;;;;;;;1.38;0.57;;;;;;;;;;5115079;28;20031;-52
2021/03/12 04:04:49;;;;;;;2.42;0.50;;;;;;;;;;5114883;28;20027;-52
2021/03/12 04:07:16;;;;;;;0.85;0.68;;;;;;;;;;5096849;28;20024;-52
2021/03/12 04:09:42;;;;;;;0.52;0.50;;;;;;;;;;5094533;28;20456;-52
2021/03/12 04:12:09;;;;;;;0.30;0.30;;;;;;;;;;5093818;28;20032;-52
2021/03/12 04:14:36;;;;;;;1.17;0.40;;;;;;;;;;5094497;28;20082;-52
2021/03/12 04:17:03;;;;;;;0.50;0.50;;;;;;;;;;5103642;28;20043;-52
2021/03/12 04:19:29;;;;;;;1.38;0.55;;;;;;;;;;5113290;28;20035;-53
2021/03/12 04:21:55;;;;;;;0.82;0.57;;;;;;;;;;5114637;28;20118;-52
2021/03/12 04:24:22;;;;;;;0.30;0.30;;;;;;;;;;5114114;28;20039;-52
2021/03/12 04:26:48;;;;;;;0.50;0.50;;;;;;;;;;5111500;28;20020;-52
2021/03/12 04:29:16;;;;;;;0.50;0.50;;;;;;;;;;5095207;28;20020;-52
2021/03/12 04:31:42;;;;;;;0.63;0.50;;;;;;;;;;5095198;28;20063;-52
2021/03/12 04:34:08;;;;;;;0.40;0.40;;;;;;;;;;5094375;28;20020;-52
2021/03/12 04:36:34;;;;;;;1.42;0.57;;;;;;;;;;5106510;28;20037;-52
2021/03/12 04:39:00;;;;;;;2.72;0.88;;;;;;;;;;5099123;28;20028;-52
2021/03/12 04:41:27;;;;;;;0.75;0.57;;;;;;;;;;5093643;28;20035;-53
2021/03/12 04:43:53;;;;;;;0.70;0.47;;;;;;;;;;5094014;28;20515;-52
2021/03/12 04:46:20;;;;;;;2.75;0.63;;;;;;;;;;5094037;28;20353;-52
2021/03/12 04:48:46;;;;;;;1.98;0.35;;;;;;;;;;5094406;28;20027;-52
2021/03/12 04:51:12;;;;;;;3.63;0.65;;;;;;;;;;5106517;28;20027;-52
2021/03/12 04:53:39;;;;;;;0.90;0.40;;;;;;;;;;5112211;28;20476;-52
2021/03/12 04:56:05;;;;;;;1.75;0.57;;;;;;;;;;5114007;28;20027;-52
2021/03/12 04:58:31;;;;;;;3.15;0.50;;;;;;;;;;5112872;28;20437;-52
2021/03/12 05:00:57;;;;;;;0.40;0.40;;;;;;;;;;5112003;28;20072;-52
2021/03/12 05:03:24;;;;;;;1.80;0.47;;;;;;;;;;5103557;28;20077;-52
2021/03/12 05:05:50;;;;;;;0.40;0.40;;;;;;;;;;5109997;28;20019;-52
2021/03/12 05:08:17;;;;;;;0.60;0.60;;;;;;;;;;5113324;28;20110;-52
2021/03/12 05:10:58;;;;;;;4.05;0.70;;;;;;;;;;5094548;28;20466;-52
2021/03/12 05:13:24;;;;;;;0.80;0.52;;;;;;;;;;5095395;28;20028;-52
2021/03/12 05:15:50;;;;;;;1.08;0.82;;;;;;;;;;5093680;28;20032;-52
2021/03/12 05:18:16;;;;;;;3.55;0.70;;;;;;;;;;5093020;28;20028;-52
2021/03/12 05:20:42;;;;;;;3.50;0.45;;;;;;;;;;5093256;28;20111;-52
2021/03/12 05:23:08;;;;;;;0.40;0.40;;;;;;;;;;5094375;28;20106;-52
2021/03/12 05:25:34;;;;;;;0.93;0.50;;;;;;;;;;5093562;28;20468;-52
2021/03/12 05:28:00;;;;;;;2.25;0.47;;;;;;;;;;5109830;28;20069;-52
2021/03/12 05:30:27;;;;;;;0.45;0.38;;;;;;;;;;5104435;28;20031;-52
2021/03/12 05:32:53;;;;;;;2.08;0.88;;;;;;;;;;5112248;28;20043;-52
2021/03/12 05:35:19;;;;;;;2.38;0.60;;;;;;;;;;5113050;28;20051;-52
2021/03/12 05:37:45;;;;;;;1.50;0.75;;;;;;;;;;5102799;28;20085;-52
2021/03/12 05:40:11;;;;;;;3.47;0.70;;;;;;;;;;5106325;28;20031;-52
2021/03/12 05:42:38;;;;;;;1.85;0.50;;;;;;;;;;5113046;28;20306;-52
2021/03/12 05:45:04;;;;;;;0.60;0.47;;;;;;;;;;5111470;28;20016;-52
2021/03/12 05:47:31;;;;;;;1.00;0.60;;;;;;;;;;5106726;28;20122;-52
2021/03/12 05:49:58;;;;;;;0.30;0.30;;;;;;;;;;5092974;28;20020;-52
2021/03/12 05:52:24;;;;;;;3.42;0.50;;;;;;;;;;5092911;28;20024;-52
2021/03/12 05:54:51;;;;;;;3.20;0.47;;;;;;;;;;5094226;28;20153;-52
2021/03/12 05:57:17;;;;;;;0.60;0.60;;;;;;;;;;5092713;28;20032;-52
2021/03/12 05:59:43;;;;;;;0.85;0.45;;;;;;;;;;5098015;28;20027;-52
2021/03/12 06:02:09;;;;;;;2.75;0.65;;;;;;;;;;5093942;28;20178;-52
2021/03/12 06:04:35;;;;;;;2.63;0.40;;;;;;;;;;5093781;28;20027;-52
2021/03/12 06:07:01;;;;;;;2.92;0.50;;;;;;;;;;5093087;28;20025;-52
2021/03/12 06:09:27;;;;;;;0.68;0.50;;;;;;;;;;5105851;28;20509;-52
2021/03/12 06:11:54;;;;;;;0.93;0.75;;;;;;;;;;5092959;28;20039;-52
2021/03/12 06:14:25;;;;;;;0.60;0.60;;;;;;;;;;5092922;28;20028;-52
2021/03/12 06:16:51;;;;;;;2.78;0.88;;;;;;;;;;5093701;28;20413;-52
2021/03/12 06:19:18;;;;;;;0.50;0.50;;;;;;;;;;5092434;28;20085;-52
2021/03/12 06:21:47;;;;;;;0.93;0.60;;;;;;;;;;5113060;28;20023;-52
2021/03/12 06:24:30;;;;;;;1.95;0.60;;;;;;;;;;5113132;28;20015;-52
2021/03/12 06:26:56;;;;;;;4.78;0.85;;;;;;;;;;5111412;28;20318;-52
2021/03/12 06:29:33;;;;;;;1.90;0.68;;;;;;;;;;5112187;28;20353;-52
2021/03/12 06:31:59;;;;;;;1.15;0.68;;;;;;;;;;5099286;28;20044;-52
2021/03/12 06:34:25;;;;;;;0.50;0.50;;;;;;;;;;5096427;28;20032;-52
2021/03/12 06:36:51;;;;;;;0.55;0.40;;;;;;;;;;5097388;28;20048;-52
2021/03/12 06:39:17;;;;;;;3.80;0.80;;;;;;;;;;5095925;28;20028;-52
2021/03/12 06:41:44;;;;;;;1.65;0.57;;;;;;;;;;5097261;28;20089;-52
2021/03/12 06:44:25;;;;;;;2.40;0.60;;;;;;;;;;5095918;28;20027;-52
2021/03/12 06:46:51;;;;;;;4.97;0.85;;;;;;;;;;5097397;28;20038;-52
2021/03/12 06:49:18;;;;;;;2.42;0.70;;;;;;;;;;5095849;28;20048;-52
2021/03/12 06:52:01;;;;;;;1.08;0.50;;;;;;;;;;5098323;28;20453;-52
2021/03/12 06:54:28;;;;;;;1.83;0.55;;;;;;;;;;5105956;28;20457;-52
2021/03/12 06:56:54;;;;;;;6.72;0.65;;;;;;;;;;5095663;28;20369;-52
2021/03/12 06:59:31;;;;;;;2.40;0.93;;;;;;;;;;5096991;28;20028;-52
2021/03/12 07:01:57;;;;;;;1.80;0.60;;;;;;;;;;5095955;28;20024;-52
2021/03/12 07:04:25;;;;;;;3.75;0.93;;;;;;;;;;5094234;28;20036;-52
2021/03/12 07:06:51;;;;;;;1.13;0.38;;;;;;;;;;5098453;28;20019;-52
2021/03/12 07:09:18;;;;;;;2.35;0.73;;;;;;;;;;5106872;28;20016;-52
2021/03/12 07:11:44;;;;;;;0.30;0.30;;;;;;;;;;5108489;28;20116;-52
2021/03/12 07:14:10;;;;;;;0.50;0.50;;;;;;;;;;5095923;28;20028;-52
2021/03/12 07:16:36;;;;;;;3.22;0.85;;;;;;;;;;5108333;28;20047;-53
2021/03/12 07:19:03;;;;;;;1.73;0.80;;;;;;;;;;5111261;27;20023;-52
2021/03/12 07:21:29;;;;;;;0.50;0.50;;;;;;;;;;5110203;28;20364;-52
2021/03/12 07:24:00;;;;;;;2.80;1.05;;;;;;;;;;5107922;28;20031;-52
2021/03/12 07:26:29;;;;;;;5.28;0.73;;;;;;;;;;5101405;28;20114;-52
2021/03/12 07:29:00;;;;;;;5.53;0.57;;;;;;;;;;5102961;28;20073;-52
2021/03/12 07:31:31;;;;;;;3.13;0.80;;;;;;;;;;5104277;28;20024;-52
2021/03/12 07:33:58;;;;;;;3.10;0.65;;;;;;;;;;5102038;28;20032;-52
2021/03/12 07:36:25;;;;;;;2.65;0.75;;;;;;;;;;5106205;28;20033;-52
2021/03/12 07:38:52;;;;;;;2.75;0.65;;;;;;;;;;5107506;28;20462;-52
2021/03/12 07:41:18;;;;;;;1.55;0.77;;;;;;;;;;5100006;28;20032;-53
2021/03/12 07:43:44;;;;;;;1.88;0.75;;;;;;;;;;5102889;28;20122;-52
2021/03/12 07:46:12;;;;;;;0.80;0.63;;;;;;;;;;5109949;28;20028;-52
2021/03/12 07:48:38;;;;;;;3.95;0.85;;;;;;;;;;5105330;28;20477;-52
2021/03/12 07:51:12;;;;;;;1.45;0.60;;;;;;;;;;5097346;28;20083;-52
2021/03/12 07:53:43;;;;;;;1.00;0.45;;;;;;;;;;5104967;28;20528;-52
2021/03/12 07:56:11;;;;;;;3.55;0.77;;;;;;;;;;5102708;28;20110;-52
2021/03/12 07:59:00;;;;;;;1.80;0.50;;;;;;;;;;5101128;28;20027;-52
2021/03/12 08:01:27;;;;;;;1.45;0.63;;;;;;;;;;5099817;28;20047;-52
2021/03/12 08:03:54;;;;;;;2.85;0.73;;;;;;;;;;5110096;28;20019;-52
2021/03/12 08:06:20;;;;;;;2.15;0.77;;;;;;;;;;5103171;28;20357;-52
2021/03/12 08:08:46;;;;;;;0.30;0.30;;;;;;;;;;5106647;28;20357;-52
2021/03/12 08:11:33;;;;;;;0.35;0.35;;;;;;;;;;5101132;28;20023;-52
2021/03/12 08:14:20;;;;;;;0.63;0.60;;;;;;;;;;5112008;28;20058;-52
2021/03/12 08:16:58;;;;;;;3.15;0.80;;;;;;;;;;5100821;28;20041;-52
2021/03/12 08:19:31;;;;;;;0.60;0.50;;;;;;;;;;5102837;28;20024;-52
2021/03/12 08:21:58;;;;;;;3.70;0.93;;;;;;;;;;5100972;28;20112;-52
2021/03/12 08:24:43;;;;;;;0.40;0.40;;;;;;;;;;5097362;28;20067;-52
2021/03/12 08:27:09;;;;;;;2.15;0.70;;;;;;;;;;5112801;28;20031;-51
2021/03/12 08:29:38;;;;;;;2.92;1.02;;;;;;;;;;5106028;28;20028;-52
2021/03/12 08:32:23;;;;;;;8.18;0.65;;;;;;;;;;5108212;28;20023;-52
2021/03/12 08:34:49;;;;;;;1.58;0.63;;;;;;;;;;5091821;28;20031;-51
2021/03/12 08:37:28;;;;;;;6.70;1.00;;;;;;;;;;5095781;28;20106;-52
2021/03/12 08:40:12;;;;;;;6.35;1.20;;;;;;;;;;5106329;28;20445;-52
2021/03/12 08:42:57;;;;;;;3.42;1.05;;;;;;;;;;5110326;28;20433;-52
2021/03/12 08:45:42;;;;;;;0.35;0.35;;;;;;;;;;5101855;28;20065;-52
2021/03/12 08:48:12;;;;;;;0.55;0.55;;;;;;;;;;5102758;28;20081;-52
2021/03/12 08:50:42;;;;;;;5.22;0.75;;;;;;;;;;5100146;28;20421;-52
2021/03/12 08:53:08;;;;;;;0.75;0.60;;;;;;;;;;5099307;28;20020;-52
2021/03/12 08:55:34;;;;;;;4.32;1.02;;;;;;;;;;5103351;28;20028;-52
2021/03/12 08:58:29;;;;;;;4.85;0.70;;;;;;;;;;5099786;28;20028;-52
2021/03/12 09:00:58;;;;;;;1.10;0.65;;;;;;;;;;5049791;28;20060;-52
2021/03/12 09:03:30;;;;;;;0.50;0.50;;;;;;;;;;5050761;28;20055;-52
2021/03/12 09:06:09;;;;;;;0.65;0.57;;;;;;;;;;5047525;28;20048;-52
2021/03/12 09:08:36;;;;;;;1.73;0.80;;;;;;;;;;5050288;28;20029;-52
2021/03/12 09:11:04;;;;;;;2.47;0.77;;;;;;;;;;5039889;28;20493;-52
2021/03/12 09:13:31;;;;;;;2.70;0.73;;;;;;;;;;5050647;28;20025;-52
2021/03/12 09:15:57;;;;;;;9.63;0.90;;;;;;;;;;5046710;28;20504;-52
2021/03/12 09:18:24;;;;;;;3.13;1.83;;;;;;;;;;5049431;28;20036;-52
2021/03/12 09:20:57;;;;;;;2.58;0.60;;;;;;;;;;5040852;28;20473;-52
2021/03/12 09:23:56;;;;;;;0.38;0.38;;;;;;;;;;5050614;28;20100;-52
2021/03/12 09:26:22;;;;;;;0.65;0.65;;;;;;;;;;4980865;28;20157;-52
2021/03/12 09:28:50;;;;;;;6.95;0.77;;;;;;;;;;4974654;28;20065;-52
2021/03/12 09:31:17;;;;;;;2.53;0.70;;;;;;;;;;4975043;28;20113;-52
2021/03/12 09:33:44;;;;;;;1.02;0.60;;;;;;;;;;4982457;28;20029;-52
2021/03/12 09:36:22;;;;;;;4.85;0.95;;;;;;;;;;4986286;28;20496;-52
2021/03/12 09:38:49;;;;;;;2.90;0.52;;;;;;;;;;5030248;28;20042;-52
2021/03/12 09:41:19;;;;;;;1.73;0.63;;;;;;;;;;5042712;28;20096;-52
2021/03/12 09:43:46;;;;;;;3.13;0.52;;;;;;;;;;5032583;28;20395;-52
2021/03/12 09:46:15;;;;;;;2.25;1.25;;;;;;;;;;5044247;28;20025;-52
2021/03/12 09:48:42;;;;;;;0.60;0.60;;;;;;;;;;5033710;28;20263;-52
2021/03/12 09:51:08;;;;;;;6.22;0.98;;;;;;;;;;5043671;28;20112;-52
2021/03/12 09:53:35;;;;;;;1.85;0.93;;;;;;;;;;5039230;28;20037;-52
2021/03/12 09:56:01;;;;;;;1.25;1.08;;;;;;;;;;5043587;28;20037;-52
2021/03/12 09:58:27;;;;;;;0.50;0.50;;;;;;;;;;5041503;28;20040;-52
2021/03/12 10:01:09;;;;;;;1.88;0.57;;;;;;;;;;5037136;28;20025;-52
2021/03/12 10:03:35;;;;;;;1.88;0.70;;;;;;;;;;5099685;28;20456;-52
2021/03/12 10:06:08;;;;;;;2.60;0.70;;;;;;;;;;5096619;28;20016;-52
2021/03/12 10:08:34;;;;;;;1.33;0.40;;;;;;;;;;5112498;28;20356;-52
2021/03/12 10:11:00;;;;;;;2.75;0.85;;;;;;;;;;5109394;28;20532;-52
2021/03/12 10:13:27;;;;;;;0.80;0.57;;;;;;;;;;5102224;28;20032;-52
2021/03/12 10:15:53;;;;;;;0.30;0.30;;;;;;;;;;5096510;28;20406;-52
2021/03/12 10:18:21;;;;;;;6.45;0.63;;;;;;;;;;5105258;28;20043;-52
2021/03/12 10:20:47;;;;;;;0.50;0.50;;;;;;;;;;5106450;28;20028;-52
2021/03/12 10:23:14;;;;;;;1.33;0.73;;;;;;;;;;5106635;28;20085;-51
2021/03/12 10:25:44;;;;;;;0.93;0.60;;;;;;;;;;5108070;28;20020;-52
2021/03/12 10:28:11;;;;;;;1.00;0.90;;;;;;;;;;5102408;28;20093;-51
2021/03/12 10:30:37;;;;;;;1.48;0.75;;;;;;;;;;5106317;28;20036;-52
2021/03/12 10:33:08;;;;;;;0.98;0.50;;;;;;;;;;5107479;28;20453;-51
2021/03/12 10:35:34;;;;;;;;;;;;;;;;;;5106653;28;20035;-52
2021/03/12 10:38:01;;;;;;;2.33;0.60;;;;;;;;;;5107168;28;19912;-52
2021/03/12 10:40:28;;;;;;;3.17;0.95;;;;;;;;;;5111957;28;20026;-52
2021/03/12 10:42:55;;;;;;;1.05;0.60;;;;;;;;;;5100292;28;20032;-52
2021/03/12 10:45:26;;;;;;;1.30;0.38;;;;;;;;;;5108586;28;20017;-52
2021/03/12 10:48:10;;;;;;;4.95;0.82;;;;;;;;;;5107516;28;20044;-52
2021/03/12 10:50:37;;;;;;;1.52;0.90;;;;;;;;;;5103864;28;20024;-52
2021/03/12 10:53:07;;;;;;;1.40;0.88;;;;;;;;;;5115766;28;20114;-52
2021/03/12 10:55:35;;;;;;;2.35;0.70;;;;;;;;;;5106142;28;20534;-52
2021/03/12 10:58:01;;;;;;;3.92;1.20;;;;;;;;;;5098978;28;20040;-52
2021/03/12 11:00:28;;;;;;;1.45;0.73;;;;;;;;;;5101740;28;20027;-52
2021/03/12 11:03:01;;;;;;;0.82;0.55;;;;;;;;;;5107879;28;20434;-52
2021/03/12 11:05:28;;;;;;;3.17;0.70;;;;;;;;;;5098318;28;20032;-52
2021/03/12 11:07:54;;;;;;;1.40;0.70;;;;;;;;;;5104029;28;20031;-52
2021/03/12 11:10:21;;;;;;;4.25;0.88;;;;;;;;;;5105898;28;20024;-52
2021/03/12 11:12:49;;;;;;;4.43;1.02;;;;;;;;;;5111500;28;20024;-52
2021/03/12 11:15:16;;;;;;;4.82;0.70;;;;;;;;;;5110575;28;20020;-52
2021/03/12 11:17:45;;;;;;;1.85;0.50;;;;;;;;;;5105529;28;20126;-52
2021/03/12 11:20:12;;;;;;;1.40;0.45;;;;;;;;;;5101430;28;20055;-52
2021/03/12 11:22:38;;;;;;;1.30;0.73;;;;;;;;;;5102942;28;20077;-52
2021/03/12 11:25:06;;;;;;;2.67;0.50;;;;;;;;;;5107364;28;20027;-52
2021/03/12 11:27:32;;;;;;;1.02;0.52;;;;;;;;;;5104245;28;20116;-51
2021/03/12 11:29:59;;;;;;;1.88;0.30;;;;;;;;;;5106728;28;20350;-52
2021/03/12 11:32:25;;;;;;;0.80;0.60;;;;;;;;;;5104632;28;20027;-52
2021/03/12 11:34:53;;;;;;;1.33;0.50;;;;;;;;;;5111226;28;20016;-52
2021/03/12 11:37:19;;;;;;;0.25;0.25;;;;;;;;;;5101904;28;20377;-52
2021/03/12 11:39:45;;;;;;;1.65;0.50;;;;;;;;;;5098171;28;20031;-52
2021/03/12 11:42:11;;;;;;;0.43;0.43;;;;;;;;;;5094631;28;20124;-52
2021/03/12 11:44:37;;;;;;;0.70;0.43;;;;;;;;;;5099529;27;20039;-52
2021/03/12 11:47:03;;;;;;;0.95;0.30;;;;;;;;;;5112072;28;20027;-52
2021/03/12 11:49:29;;;;;;;0.20;0.20;;;;;;;;;;5100775;28;20028;-51
2021/03/12 11:51:56;;;;;;;2.25;0.40;;;;;;;;;;5102060;28;20029;-52
2021/03/12 11:54:22;;;;;;;0.38;0.38;;;;;;;;;;5108129;28;20034;-52
2021/03/12 11:56:49;;;;;;;0.38;0.38;;;;;;;;;;5097880;28;20453;-52
2021/03/12 11:59:15;;;;;;;0.25;0.25;;;;;;;;;;5114172;28;20032;-52
2021/03/12 12:01:41;;;;;;;1.70;0.68;;;;;;;;;;5102978;28;20024;-52
2021/03/12 12:04:07;;;;;;;0.40;0.40;;;;;;;;;;5103947;28;20334;-52
2021/03/12 12:06:33;;;;;;;0.40;0.40;;;;;;;;;;5098530;28;20065;-52
2021/03/12 12:09:00;;;;;;;0.20;0.20;;;;;;;;;;5107826;28;20023;-52
2021/03/12 12:11:27;;;;;;;0.30;0.30;;;;;;;;;;5097538;28;20043;-52
2021/03/12 12:13:53;;;;;;;0.28;0.28;;;;;;;;;;5099831;28;20469;-52
2021/03/12 12:16:19;;;;;;;4.25;0.70;;;;;;;;;;5111673;28;20039;-52
2021/03/12 12:18:45;;;;;;;0.85;0.85;;;;;;;;;;5097251;28;20399;-52
2021/03/12 12:21:11;;;;;;;0.75;0.40;;;;;;;;;;5111895;28;20099;-52
2021/03/12 12:23:38;;;;;;;0.65;0.50;;;;;;;;;;5103166;28;20032;-52
2021/03/12 12:26:04;;;;;;;1.05;0.43;;;;;;;;;;5097128;28;20020;-52
2021/03/12 12:28:30;;;;;;;1.55;0.57;;;;;;;;;;5108963;28;20183;-52
2021/03/12 12:30:56;;;;;;;1.45;0.40;;;;;;;;;;5102780;28;20095;-52
2021/03/12 12:33:22;;;;;;;1.10;0.40;;;;;;;;;;5105242;28;20016;-52
2021/03/12 12:35:48;;;;;;;0.22;0.22;;;;;;;;;;5103778;28;20038;-52
2021/03/12 12:38:14;;;;;;;1.23;0.30;;;;;;;;;;5097641;28;20485;-52
2021/03/12 12:40:40;;;;;;;1.63;0.52;;;;;;;;;;5109084;28;20092;-52
2021/03/12 12:43:06;;;;;;;14.88;0.85;;;;;;;;;;5107873;28;20110;-52
2021/03/12 12:45:32;;;;;;;1.77;0.63;;;;;;;;;;5099979;28;20020;-52
2021/03/12 12:47:59;;;;;;;0.43;0.43;;;;;;;;;;5106893;28;20100;-52
2021/03/12 12:50:25;;;;;;;1.35;0.45;;;;;;;;;;5098755;28;20032;-52
2021/03/12 12:52:51;;;;;;;2.60;0.50;;;;;;;;;;5107515;28;20031;-52
2021/03/12 12:55:17;;;;;;;0.50;0.50;;;;;;;;;;5101268;28;20381;-52
2021/03/12 12:57:43;;;;;;;0.30;0.30;;;;;;;;;;5110290;28;20492;-52
2021/03/12 13:00:10;;;;;;;2.47;0.68;;;;;;;;;;5094434;28;20028;-51
2021/03/12 13:02:36;;;;;;;3.03;0.68;;;;;;;;;;5102906;28;20078;-52
2021/03/12 13:05:03;;;;;;;1.17;0.80;;;;;;;;;;5110814;28;20019;-52
2021/03/12 13:07:29;;;;;;;1.10;0.68;;;;;;;;;;5104724;28;20036;-52
2021/03/12 13:09:55;;;;;;;1.50;0.70;;;;;;;;;;5106342;28;20449;-52
2021/03/12 13:12:21;;;;;;;11.18;1.00;;;;;;;;;;5099632;28;20081;-51
2021/03/12 13:14:49;;;;;;;1.55;0.77;;;;;;;;;;5103165;28;20026;-52
2021/03/12 13:17:15;;;;;;;1.13;0.63;;;;;;;;;;5099195;28;20028;-52
2021/03/12 13:19:42;;;;;;;1.52;0.60;;;;;;;;;;5099683;28;20012;-52
2021/03/12 13:22:07;;;;;;;5.72;1.13;;;;;;;;;;5097018;28;20449;-52
2021/03/12 13:24:33;;;;;;;1.38;0.57;;;;;;;;;;5096753;28;20021;-52
2021/03/12 13:26:59;;;;;;;7.80;0.70;;;;;;;;;;5107789;28;20065;-52
2021/03/12 13:29:26;;;;;;;2.83;0.85;;;;;;;;;;5104560;28;20118;-51
2021/03/12 13:31:52;;;;;;;2.83;0.82;;;;;;;;;;5105477;28;20030;-52
2021/03/12 13:34:18;;;;;;;0.40;0.40;;;;;;;;;;5094592;28;20150;-52
2021/03/12 13:36:44;;;;;;;4.07;0.60;;;;;;;;;;5109262;28;20131;-52
2021/03/12 13:39:10;;;;;;;0.85;0.45;;;;;;;;;;5093272;28;20023;-51
2021/03/12 13:41:36;;;;;;;1.70;0.60;;;;;;;;;;5106900;28;20034;-52
2021/03/12 13:44:04;;;;;;;2.30;0.60;;;;;;;;;;5115551;28;20024;-52
2021/03/12 13:46:30;;;;;;;3.50;0.88;;;;;;;;;;5100772;28;20112;-52
2021/03/12 13:48:56;;;;;;;1.95;0.77;;;;;;;;;;5112544;28;20107;-52
2021/03/12 13:51:22;;;;;;;0.50;0.50;;;;;;;;;;5105356;28;20028;-51
2021/03/12 13:53:48;;;;;;;3.75;0.93;;;;;;;;;;5114368;28;20027;-51
2021/03/12 13:56:14;;;;;;;0.73;0.40;;;;;;;;;;5101427;28;20024;-52
2021/03/12 13:58:40;;;;;;;5.68;0.60;;;;;;;;;;5114589;28;20032;-52
2021/03/12 14:01:06;;;;;;;4.72;0.80;;;;;;;;;;5104253;28;20023;-52
2021/03/12 14:03:32;;;;;;;0.63;0.50;;;;;;;;;;5112682;28;20035;-51
2021/03/12 14:05:58;;;;;;;2.45;0.68;;;;;;;;;;5103430;28;20481;-51
2021/03/12 14:08:24;;;;;;;4.15;0.70;;;;;;;;;;5113300;28;20059;-51
2021/03/12 14:10:50;;;;;;;9.40;1.17;;;;;;;;;;5102787;28;20388;-52
2021/03/12 14:13:16;;;;;;;2.58;0.70;;;;;;;;;;5104284;28;20042;-52
2021/03/12 14:15:42;;;;;;;2.63;0.98;;;;;;;;;;5105909;28;20059;-52
2021/03/12 14:18:08;;;;;;;6.72;0.80;;;;;;;;;;5110678;28;20047;-51
2021/03/12 14:20:35;;;;;;;2.45;0.88;;;;;;;;;;5099565;28;20403;-51
2021/03/12 14:23:01;;;;;;;0.80;0.60;;;;;;;;;;5103102;28;20024;-52
2021/03/12 14:25:27;;;;;;;5.65;0.80;;;;;;;;;;5110064;28;20365;-52
2021/03/12 14:27:53;;;;;;;2.22;0.75;;;;;;;;;;5103301;28;20031;-52
2021/03/12 14:30:20;;;;;;;3.80;0.50;;;;;;;;;;5105981;28;20024;-51
2021/03/12 14:32:46;;;;;;;0.22;0.22;;;;;;;;;;5108936;28;20103;-51
2021/03/12 14:35:12;;;;;;;0.90;0.70;;;;;;;;;;5103259;28;20149;-51
2021/03/12 14:37:38;;;;;;;1.73;0.70;;;;;;;;;;5105440;28;20457;-51
2021/03/12 14:40:05;;;;;;;0.82;0.60;;;;;;;;;;5100995;28;20024;-51
2021/03/12 14:42:31;;;;;;;2.88;0.98;;;;;;;;;;5106159;28;20152;-52
2021/03/12 14:44:57;;;;;;;3.33;0.70;;;;;;;;;;5111383;28;20028;-52
2021/03/12 14:47:23;;;;;;;1.63;0.65;;;;;;;;;;5103354;28;20115;-51